Time;durP1;ratioP1;P1;durP2;ratioP2;P2;SDS_P1;SDS_P2;PMS_P1;PMS_P2;Temp;Humidity;BMP_temperature;BMP_pressure;BME280_temperature;BME280_humidity;BME280_pressure;Samples;Min_cycle;Max_cycle;Signal;HPM_P1;HPM_P2
2023/05/18 00:00:13;;;;;;;5.70;3.00;;;;;;;7.03;100.00;99064.41;2604659;28;20053;-87
2023/05/18 00:01:52;;;;;;;7.53;2.83;;;;;;;6.90;100.00;99063.59;2602748;28;21573;-87
2023/05/18 00:03:08;;;;;;;6.47;3.30;;;;;;;6.86;100.00;99067.06;2603770;28;20049;-87
2023/05/18 00:04:24;;;;;;;5.38;2.45;;;;;;;6.88;100.00;99065.31;2604031;28;20096;-87
2023/05/18 00:05:41;;;;;;;8.57;3.35;;;;;;;6.92;100.00;99061.00;2602923;28;20128;-87
2023/05/18 00:06:57;;;;;;;5.68;2.67;;;;;;;7.05;100.00;99065.28;2603874;28;20049;-87
2023/05/18 00:08:13;;;;;;;7.13;2.70;;;;;;;7.02;100.00;99067.03;2603894;28;20056;-87
2023/05/18 00:09:30;;;;;;;7.97;2.85;;;;;;;6.74;100.00;99069.69;2603336;28;20393;-87
2023/05/18 00:10:45;;;;;;;5.18;2.70;;;;;;;6.57;100.00;99064.53;2603651;28;20069;-87
2023/05/18 00:12:03;;;;;;;8.15;3.70;;;;;;;6.52;100.00;99061.06;2600515;28;20520;-88
2023/05/18 00:13:19;;;;;;;8.05;3.10;;;;;;;6.57;100.00;99061.91;2603393;28;20090;-87
2023/05/18 00:14:35;;;;;;;6.50;3.10;;;;;;;6.68;100.00;99072.31;2602354;28;20045;-87
2023/05/18 00:15:51;;;;;;;7.22;3.47;;;;;;;6.68;100.00;99072.31;2603946;28;20048;-87
2023/05/18 00:17:07;;;;;;;6.75;2.90;;;;;;;6.73;100.00;99076.63;2602488;28;20045;-87
2023/05/18 00:18:26;;;;;;;5.65;3.25;;;;;;;6.70;100.00;99068.84;2603862;28;20053;-87
2023/05/18 00:19:45;;;;;;;9.38;3.05;;;;;;;6.85;100.00;99070.56;2603199;28;20045;-87
2023/05/18 00:21:01;;;;;;;9.30;3.47;;;;;;;6.85;100.00;99074.88;2603126;28;20606;-87
2023/05/18 00:22:19;;;;;;;7.78;3.00;;;;;;;6.98;100.00;99071.38;2603787;28;20041;-87
2023/05/18 00:23:38;;;;;;;7.38;3.30;;;;;;;6.75;100.00;99079.25;2603628;28;20096;-87
2023/05/18 00:24:54;;;;;;;6.05;3.10;;;;;;;6.59;100.00;99070.59;2603553;28;20721;-87
2023/05/18 00:26:09;;;;;;;7.60;3.13;;;;;;;6.75;100.00;99074.03;2603167;28;20128;-86
2023/05/18 00:27:24;;;;;;;6.82;2.67;;;;;;;6.72;100.00;99074.91;2604428;28;20040;-87
2023/05/18 00:28:40;;;;;;;5.70;3.25;;;;;;;6.67;100.00;99071.44;2603454;28;20679;-87
2023/05/18 00:29:56;;;;;;;6.93;2.95;;;;;;;6.46;100.00;99077.56;2603547;28;20045;-86
2023/05/18 00:31:11;;;;;;;6.03;2.80;;;;;;;6.57;100.00;99068.00;2603625;28;20489;-87
2023/05/18 00:32:27;;;;;;;7.50;2.90;;;;;;;6.58;100.00;99069.75;2602703;28;20481;-87
2023/05/18 00:33:45;;;;;;;10.20;3.25;;;;;;;6.74;100.00;99067.09;2603225;28;20045;-87
2023/05/18 00:35:01;;;;;;;6.53;2.80;;;;;;;6.72;100.00;99072.28;2603197;28;20049;-88
2023/05/18 00:36:17;;;;;;;5.32;2.55;;;;;;;6.77;100.00;99072.28;2603045;28;20454;-87
2023/05/18 00:37:32;;;;;;;7.03;3.20;;;;;;;6.75;100.00;99079.25;2603726;28;20053;-88
2023/05/18 00:38:48;;;;;;;10.13;3.50;;;;;;;6.62;100.00;99073.19;2602278;28;20042;-87
2023/05/18 00:40:05;;;;;;;6.95;3.25;;;;;;;6.61;100.00;99074.94;2604183;28;20053;-88
2023/05/18 00:41:21;;;;;;;11.23;3.00;;;;;;;6.63;100.00;99081.00;2603101;28;20049;-87
2023/05/18 00:42:36;;;;;;;7.80;2.70;;;;;;;6.71;100.00;99075.78;2604331;28;20084;-87
2023/05/18 00:43:53;;;;;;;4.93;3.72;;;;;;;6.66;100.00;99081.84;2603504;28;20073;-88
2023/05/18 00:45:09;;;;;;;6.35;2.78;;;;;;;6.70;100.00;99076.66;2603385;28;20055;-87
2023/05/18 00:46:26;;;;;;;5.70;3.15;;;;;;;6.75;100.00;99079.25;2604114;28;20192;-87
2023/05/18 00:47:42;;;;;;;6.13;2.88;;;;;;;6.69;100.00;99079.25;2603954;28;20544;-87
2023/05/18 00:49:00;;;;;;;5.82;3.00;;;;;;;6.81;100.00;99079.22;2605178;28;20115;-88
2023/05/18 00:50:16;;;;;;;8.27;3.58;;;;;;;6.71;100.00;99073.16;2602379;28;20514;-88
2023/05/18 00:51:33;;;;;;;7.68;3.05;;;;;;;6.67;100.00;99071.44;2604027;28;20144;-87
2023/05/18 00:52:50;;;;;;;4.82;3.17;;;;;;;6.74;100.00;99073.16;2602041;28;20174;-87
2023/05/18 00:54:06;;;;;;;9.35;3.05;;;;;;;6.69;100.00;99071.44;2602835;28;20135;-88
2023/05/18 00:55:22;;;;;;;9.05;3.22;;;;;;;6.75;100.00;99076.63;2605150;28;20049;-87
2023/05/18 00:56:40;;;;;;;4.82;2.67;;;;;;;6.78;100.00;99081.84;2602887;28;20045;-87
2023/05/18 00:57:57;;;;;;;5.95;2.85;;;;;;;6.84;100.00;99079.19;2603943;28;20045;-87
2023/05/18 00:59:14;;;;;;;6.00;2.83;;;;;;;6.70;100.00;99076.66;2593240;28;20136;-87
2023/05/18 01:00:30;;;;;;;5.38;2.90;;;;;;;6.73;100.00;99081.84;2596810;28;20049;-88
2023/05/18 01:01:47;;;;;;;6.82;2.95;;;;;;;6.67;100.00;99075.78;2602495;28;20045;-87
2023/05/18 01:03:03;;;;;;;8.05;3.40;;;;;;;6.28;100.00;99081.88;2604493;28;20076;-87
2023/05/18 01:04:20;;;;;;;8.15;3.28;;;;;;;6.51;100.00;99086.22;2603289;28;20128;-87
2023/05/18 01:05:36;;;;;;;5.70;3.05;;;;;;;6.11;100.00;99081.91;2603581;28;20076;-87
2023/05/18 01:06:55;;;;;;;7.57;3.22;;;;;;;6.18;100.00;99082.75;2603657;28;20045;-87
2023/05/18 01:08:10;;;;;;;7.45;3.38;;;;;;;6.19;100.00;99077.53;2601837;28;20049;-88
2023/05/18 01:09:26;;;;;;;6.05;2.90;;;;;;;6.03;100.00;99083.63;2603744;28;20054;-87
2023/05/18 01:10:42;;;;;;;10.82;4.07;;;;;;;6.25;100.00;99073.22;2603608;28;20610;-87
2023/05/18 01:12:17;;;;;;;9.13;3.65;;;;;;;6.15;100.00;99078.41;2603880;28;20079;-88
2023/05/18 01:14:11;;;;;;;7.78;3.40;;;;;;;6.09;100.00;99075.84;2602334;28;20088;-88
2023/05/18 01:15:37;;;;;;;8.68;3.03;;;;;;;6.08;100.00;99076.69;2574052;28;20050;-88
2023/05/18 01:16:57;;;;;;;9.13;3.40;;;;;;;6.15;100.00;99078.41;2602850;28;20049;-88
2023/05/18 01:18:24;;;;;;;9.05;3.15;;;;;;;6.40;100.00;99077.53;2604248;28;20516;-88
2023/05/18 01:19:52;;;;;;;6.45;3.33;;;;;;;6.38;100.00;99074.97;2602431;28;20132;-87
2023/05/18 01:21:24;;;;;;;11.13;3.33;;;;;;;6.21;100.00;99078.41;2591180;28;20053;-89
2023/05/18 01:22:55;;;;;;;5.25;2.97;;;;;;;6.61;100.00;99067.13;2598718;28;20281;-88
2023/05/18 01:24:52;;;;;;;10.98;3.58;;;;;;;6.39;100.00;99078.41;2602292;28;20057;-89
2023/05/18 01:26:15;;;;;;;4.95;2.65;;;;;;;6.31;100.00;99079.31;2550926;29;20058;-88
2023/05/18 01:27:36;;;;;;;9.95;3.15;;;;;;;6.45;100.00;99078.44;2551975;29;20095;-88
2023/05/18 01:28:53;;;;;;;7.15;2.95;;;;;;;6.57;100.00;99077.53;2550712;29;20058;-87
2023/05/18 01:30:15;;;;;;;6.65;3.38;;;;;;;6.39;100.00;99081.00;2551595;29;20126;-90
2023/05/18 01:31:31;;;;;;;11.73;3.65;;;;;;;6.38;100.00;99080.16;2550966;29;20052;-88
2023/05/18 01:32:47;;;;;;;6.85;3.60;;;;;;;6.45;100.00;99076.66;2552394;29;20203;-88
2023/05/18 01:34:02;;;;;;;8.38;2.95;;;;;;;6.47;100.00;99074.94;2552005;29;20062;-88
2023/05/18 01:35:18;;;;;;;9.07;3.55;;;;;;;6.45;100.00;99073.22;2550748;29;20066;-88
2023/05/18 01:36:34;;;;;;;7.65;3.30;;;;;;;6.56;100.00;99076.66;2551121;28;20067;-88
2023/05/18 01:37:49;;;;;;;12.50;3.78;;;;;;;6.57;100.00;99078.41;2551855;29;20228;-88
2023/05/18 01:39:05;;;;;;;10.10;3.45;;;;;;;6.60;100.00;99070.59;2555723;29;20055;-87
2023/05/18 01:40:22;;;;;;;5.45;3.40;;;;;;;6.35;100.00;99081.03;2554723;29;20051;-89
2023/05/18 01:41:44;;;;;;;7.50;3.40;;;;;;;6.33;100.00;99082.75;2551495;29;20101;-89
2023/05/18 01:43:08;;;;;;;9.05;3.25;;;;;;;6.27;100.00;99082.75;2550884;28;20074;-89
2023/05/18 01:44:35;;;;;;;8.25;3.55;;;;;;;6.33;100.00;99079.28;2549414;29;20052;-88
2023/05/18 01:45:55;;;;;;;7.70;3.13;;;;;;;6.26;100.00;99080.16;2552519;29;20102;-88
2023/05/18 01:47:17;;;;;;;8.60;3.38;;;;;;;6.26;100.00;99083.63;2550868;29;20057;-88
2023/05/18 01:48:36;;;;;;;9.27;3.55;;;;;;;6.42;100.00;99088.81;2552934;29;20051;-87
2023/05/18 01:50:17;;;;;;;8.88;3.22;;;;;;;6.58;100.00;99090.56;2550210;29;20109;-87
2023/05/18 01:51:37;;;;;;;5.57;3.30;;;;;;;6.46;100.00;99085.34;2552631;29;20047;-88
2023/05/18 01:53:15;;;;;;;6.50;3.03;;;;;;;6.22;100.00;99087.09;2551515;29;20326;-87
2023/05/18 01:54:35;;;;;;;5.90;3.22;;;;;;;5.94;100.00;99087.03;2551823;29;20058;-86
2023/05/18 01:55:52;;;;;;;9.07;3.22;;;;;;;5.99;100.00;99093.09;2551703;29;20055;-87
2023/05/18 01:57:08;;;;;;;6.45;2.97;;;;;;;5.90;100.00;99087.91;2551698;29;20647;-86
2023/05/18 01:58:25;;;;;;;10.82;3.65;;;;;;;5.93;100.00;99099.16;2552513;29;20082;-87
2023/05/18 01:59:41;;;;;;;8.13;3.40;;;;;;;5.92;100.00;99101.78;2550760;29;20446;-88
2023/05/18 02:00:57;;;;;;;10.68;3.58;;;;;;;6.13;100.00;99095.75;2583591;28;20049;-90
2023/05/18 02:02:13;;;;;;;7.70;3.65;;;;;;;6.24;100.00;99090.56;2593582;28;20508;-87
2023/05/18 02:03:31;;;;;;;8.13;3.05;;;;;;;6.36;100.00;99087.94;2593798;28;20048;-87
2023/05/18 02:04:46;;;;;;;10.50;3.60;;;;;;;6.34;100.00;99091.41;2592501;28;21050;-87
2023/05/18 02:06:02;;;;;;;8.13;3.40;;;;;;;6.46;100.00;99088.81;2592548;28;20562;-87
2023/05/18 02:07:17;;;;;;;7.25;3.50;;;;;;;6.57;100.00;99095.75;2593785;28;20053;-87
2023/05/18 02:08:33;;;;;;;7.57;3.20;;;;;;;6.49;100.00;99093.16;2591249;28;20053;-87
2023/05/18 02:09:49;;;;;;;8.25;3.17;;;;;;;6.38;100.00;99094.88;2593463;28;20444;-88
2023/05/18 02:11:05;;;;;;;8.43;3.17;;;;;;;6.47;100.00;99089.69;2592796;28;20363;-87
2023/05/18 02:12:20;;;;;;;5.68;2.85;;;;;;;6.57;100.00;99096.63;2593243;28;20140;-87
2023/05/18 02:13:36;;;;;;;5.68;2.80;;;;;;;6.63;100.00;99094.00;2590509;28;20056;-88
2023/05/18 02:14:51;;;;;;;7.97;3.10;;;;;;;6.54;100.00;99104.41;2591902;28;20417;-88
2023/05/18 02:16:07;;;;;;;4.72;3.25;;;;;;;6.60;100.00;99096.63;2581555;28;20058;-88
2023/05/18 02:17:25;;;;;;;7.65;3.30;;;;;;;6.57;100.00;99095.75;2585446;28;20073;-88
2023/05/18 02:18:40;;;;;;;6.78;3.10;;;;;;;6.56;100.00;99097.47;2594499;28;20057;-88
2023/05/18 02:19:56;;;;;;;7.82;2.67;;;;;;;6.60;100.00;99096.63;2593527;28;20042;-87
2023/05/18 02:21:12;;;;;;;5.68;2.80;;;;;;;6.66;100.00;99100.06;2592367;28;20049;-88
2023/05/18 02:22:28;;;;;;;4.85;2.78;;;;;;;6.59;100.00;99096.59;2592633;28;20041;-87
2023/05/18 02:23:43;;;;;;;7.70;3.28;;;;;;;6.61;100.00;99100.94;2587771;28;20050;-86
2023/05/18 02:24:59;;;;;;;6.97;2.90;;;;;;;6.67;100.00;99096.59;2592527;28;20056;-87
2023/05/18 02:26:14;;;;;;;5.88;2.80;;;;;;;6.62;100.00;99094.00;2595772;28;20053;-87
2023/05/18 02:27:31;;;;;;;5.90;3.20;;;;;;;6.56;100.00;99094.00;2593178;28;20160;-87
2023/05/18 02:28:46;;;;;;;6.43;3.35;;;;;;;6.50;100.00;99094.88;2594283;28;20095;-87
2023/05/18 02:30:07;;;;;;;7.30;3.30;;;;;;;6.63;100.00;99096.59;2593562;28;20045;-87
2023/05/18 02:31:23;;;;;;;6.60;3.10;;;;;;;6.66;100.00;99095.75;2594203;28;20053;-87
2023/05/18 02:32:41;;;;;;;8.73;2.95;;;;;;;6.45;100.00;99092.28;2594507;28;20508;-88
2023/05/18 02:33:57;;;;;;;9.52;3.28;;;;;;;6.29;100.00;99094.03;2596504;28;20060;-88
2023/05/18 02:35:12;;;;;;;8.57;3.25;;;;;;;6.16;100.00;99087.09;2594671;28;20046;-87
2023/05/18 02:36:35;;;;;;;6.85;3.50;;;;;;;6.15;100.00;99093.19;2603652;28;20057;-88
2023/05/18 02:37:52;;;;;;;10.05;3.65;;;;;;;6.07;100.00;99093.13;2606770;28;20485;-86
2023/05/18 02:39:09;;;;;;;8.52;3.58;;;;;;;6.15;100.00;99087.97;2603486;28;20053;-87
2023/05/18 02:40:24;;;;;;;7.30;3.25;;;;;;;6.11;100.00;99088.81;2603569;28;20555;-87
2023/05/18 02:41:40;;;;;;;9.68;3.33;;;;;;;5.91;100.00;99090.50;2605460;28;20051;-87
2023/05/18 02:42:55;;;;;;;5.85;3.25;;;;;;;6.14;100.00;99084.50;2606473;28;20403;-87
2023/05/18 02:44:11;;;;;;;5.35;3.15;;;;;;;6.07;100.00;99078.41;2605568;28;20478;-86
2023/05/18 02:45:27;;;;;;;6.72;3.42;;;;;;;5.96;100.00;99080.09;2605611;28;20052;-87
2023/05/18 02:46:42;;;;;;;8.73;3.80;;;;;;;6.07;100.00;99083.63;2604633;28;20440;-87
2023/05/18 02:47:58;;;;;;;6.38;3.63;;;;;;;6.04;100.00;99078.44;2591922;28;20615;-87
2023/05/18 02:49:14;;;;;;;8.27;3.75;;;;;;;6.19;100.00;99087.09;2605080;28;20052;-86
2023/05/18 02:50:29;;;;;;;6.60;3.28;;;;;;;6.21;100.00;99082.75;2604363;28;20053;-87
2023/05/18 02:51:45;;;;;;;6.90;3.35;;;;;;;6.32;100.00;99082.75;2604646;28;20517;-87
2023/05/18 02:53:00;;;;;;;7.18;3.45;;;;;;;6.46;100.00;99082.75;2602618;28;20468;-88
2023/05/18 02:54:16;;;;;;;7.05;3.63;;;;;;;6.16;100.00;99087.94;2603433;28;20512;-89
2023/05/18 02:55:32;;;;;;;8.25;4.03;;;;;;;6.27;100.00;99087.09;2603820;28;20535;-88
2023/05/18 02:56:48;;;;;;;7.88;3.33;;;;;;;6.32;100.00;99086.22;2606602;28;20551;-88
2023/05/18 02:58:03;;;;;;;9.63;3.80;;;;;;;6.31;100.00;99089.69;2603812;28;20397;-87
2023/05/18 02:59:19;;;;;;;9.15;4.00;;;;;;;6.17;100.00;99089.69;2615417;28;20048;-88
2023/05/18 03:00:34;;;;;;;7.82;3.75;;;;;;;6.33;100.00;99094.88;2615502;28;20558;-89
2023/05/18 03:01:50;;;;;;;7.88;3.50;;;;;;;6.26;100.00;99099.22;2614236;28;20130;-88
2023/05/18 03:03:05;;;;;;;6.35;3.40;;;;;;;6.29;100.00;99099.25;2615776;28;20419;-88
2023/05/18 03:04:24;;;;;;;8.80;3.72;;;;;;;6.30;100.00;99103.56;2615960;28;20515;-88
2023/05/18 03:05:40;;;;;;;8.13;3.45;;;;;;;6.30;100.00;99098.38;2615630;28;20286;-88
2023/05/18 03:06:56;;;;;;;8.00;3.63;;;;;;;6.28;100.00;99096.63;2614307;28;20053;-89
2023/05/18 03:08:13;;;;;;;6.18;3.20;;;;;;;6.15;100.00;99098.38;2613504;28;21002;-89
2023/05/18 03:09:28;;;;;;;7.85;2.90;;;;;;;6.28;100.00;99104.44;2613705;28;20132;-89
2023/05/18 03:10:44;;;;;;;7.22;3.33;;;;;;;6.43;100.00;99099.22;2613995;28;20064;-88
2023/05/18 03:12:00;;;;;;;7.53;3.15;;;;;;;6.50;100.00;99105.28;2615358;28;20136;-89
2023/05/18 03:13:15;;;;;;;6.22;3.25;;;;;;;6.32;100.00;99104.44;2613744;28;20099;-88
2023/05/18 03:14:31;;;;;;;7.53;3.20;;;;;;;6.46;100.00;99101.81;2614737;28;20052;-88
2023/05/18 03:15:48;;;;;;;6.28;3.67;;;;;;;6.38;100.00;99100.97;2616803;28;20129;-88
2023/05/18 03:17:04;;;;;;;5.93;3.50;;;;;;;6.45;100.00;99102.69;2613871;28;20064;-88
2023/05/18 03:18:20;;;;;;;7.03;3.42;;;;;;;6.44;100.00;99105.31;2614740;28;20122;-87
2023/05/18 03:19:36;;;;;;;8.00;3.38;;;;;;;6.43;100.00;99107.03;2615723;28;20102;-88
2023/05/18 03:20:51;;;;;;;5.45;3.20;;;;;;;6.50;100.00;99111.38;2614791;28;20416;-88
2023/05/18 03:22:07;;;;;;;5.80;2.80;;;;;;;6.53;100.00;99107.03;2614300;28;20119;-88
2023/05/18 03:23:22;;;;;;;9.63;4.03;;;;;;;6.56;100.00;99105.28;2614111;28;20063;-88
2023/05/18 03:24:39;;;;;;;8.18;3.67;;;;;;;6.55;100.00;99113.09;2613634;28;20049;-88
2023/05/18 03:25:54;;;;;;;5.95;3.00;;;;;;;6.59;100.00;99110.50;2615213;28;20143;-89
2023/05/18 03:27:11;;;;;;;5.80;2.83;;;;;;;6.57;100.00;99116.56;2613818;28;20586;-89
2023/05/18 03:28:28;;;;;;;7.13;2.88;;;;;;;6.60;100.00;99113.94;2615541;28;20515;-88
2023/05/18 03:29:44;;;;;;;5.55;3.03;;;;;;;6.58;100.00;99115.69;2616466;28;20049;-88
2023/05/18 03:31:00;;;;;;;5.72;2.90;;;;;;;6.59;100.00;99115.69;2615013;28;20991;-88
2023/05/18 03:32:15;;;;;;;9.98;2.90;;;;;;;6.50;100.00;99115.69;2614897;28;20063;-88
2023/05/18 03:33:31;;;;;;;6.53;2.70;;;;;;;6.51;100.00;99117.44;2615575;28;20342;-88
2023/05/18 03:34:46;;;;;;;7.20;2.95;;;;;;;6.59;100.00;99120.91;2613709;28;20488;-91
2023/05/18 03:36:03;;;;;;;7.22;3.05;;;;;;;6.23;100.00;99117.44;2613442;28;20083;-89
2023/05/18 03:37:19;;;;;;;7.20;2.92;;;;;;;6.53;100.00;99118.28;2616145;28;20499;-90
2023/05/18 03:38:35;;;;;;;4.60;2.67;;;;;;;6.55;100.00;99113.94;2603066;28;20131;-89
2023/05/18 03:39:50;;;;;;;7.45;3.25;;;;;;;6.53;100.00;99109.63;2608404;28;20060;-89
2023/05/18 03:41:06;;;;;;;8.07;3.15;;;;;;;6.50;100.00;99115.69;2615762;28;20063;-89
2023/05/18 03:42:21;;;;;;;7.30;3.13;;;;;;;6.50;100.00;99113.97;2601521;28;20117;-89
2023/05/18 03:43:37;;;;;;;4.93;2.97;;;;;;;6.61;100.00;99113.97;2608011;28;20044;-89
2023/05/18 03:44:52;;;;;;;8.23;3.22;;;;;;;6.47;100.00;99115.69;2616685;28;20545;-89
2023/05/18 03:46:08;;;;;;;7.38;3.30;;;;;;;6.40;100.00;99124.34;2614562;28;20080;-90
2023/05/18 03:47:24;;;;;;;3.88;2.90;;;;;;;6.09;100.00;99130.44;2614826;28;20044;-89
2023/05/18 03:48:39;;;;;;;7.88;2.92;;;;;;;6.29;100.00;99129.56;2616518;28;20045;-89
2023/05/18 03:49:55;;;;;;;8.10;3.05;;;;;;;6.38;100.00;99131.31;2614860;28;20045;-89
2023/05/18 03:51:11;;;;;;;5.28;3.25;;;;;;;6.30;100.00;99139.09;2615416;28;20055;-91
2023/05/18 03:52:28;;;;;;;12.63;3.15;;;;;;;6.31;100.00;99130.44;2615209;28;20063;-89
2023/05/18 03:53:44;;;;;;;9.95;3.30;;;;;;;6.36;100.00;99134.78;2610157;28;20160;-89
2023/05/18 03:55:00;;;;;;;6.95;3.13;;;;;;;6.62;100.00;99139.09;2613172;28;20057;-90
2023/05/18 03:56:16;;;;;;;8.60;3.03;;;;;;;6.53;100.00;99135.66;2615996;28;20049;-89
2023/05/18 03:57:32;;;;;;;5.57;3.00;;;;;;;6.52;100.00;99139.97;2614789;28;20471;-89
2023/05/18 03:58:48;;;;;;;8.23;3.13;;;;;;;6.34;100.00;99135.63;2615986;28;20048;-88
2023/05/18 04:00:11;;;;;;;7.55;3.50;;;;;;;6.36;100.00;99141.72;2616495;28;20044;-90
2023/05/18 04:01:29;;;;;;;5.93;3.15;;;;;;;6.19;100.00;99141.69;2613008;28;20131;-88
2023/05/18 04:02:45;;;;;;;10.43;3.55;;;;;;;6.21;100.00;99143.41;2613995;28;20041;-89
2023/05/18 04:04:00;;;;;;;6.28;2.95;;;;;;;6.20;100.00;99143.44;2609142;28;20405;-90
2023/05/18 04:05:17;;;;;;;7.05;2.83;;;;;;;6.34;100.00;99140.81;2614827;28;20109;-91
2023/05/18 04:06:34;;;;;;;4.80;3.00;;;;;;;6.22;100.00;99152.09;2612969;28;20048;-89
2023/05/18 04:07:49;;;;;;;7.35;2.95;;;;;;;6.17;100.00;99144.28;2615558;28;20140;-89
2023/05/18 04:09:06;;;;;;;12.55;3.15;;;;;;;6.24;100.00;99154.72;2613319;28;20040;-89
2023/05/18 04:10:22;;;;;;;7.68;3.17;;;;;;;6.30;100.00;99157.31;2615658;28;20614;-89
2023/05/18 04:11:38;;;;;;;8.85;3.08;;;;;;;6.17;100.00;99148.63;2616255;28;20466;-89
2023/05/18 04:12:53;;;;;;;6.65;2.80;;;;;;;6.22;100.00;99154.69;2613466;28;20080;-88
2023/05/18 04:14:11;;;;;;;6.72;3.17;;;;;;;6.30;100.00;99150.38;2613906;28;20051;-89
2023/05/18 04:15:26;;;;;;;5.88;3.03;;;;;;;6.28;100.00;99152.09;2613119;28;20504;-88
2023/05/18 04:16:42;;;;;;;6.15;3.22;;;;;;;6.24;100.00;99152.97;2614103;28;20307;-89
2023/05/18 04:17:58;;;;;;;6.75;2.60;;;;;;;6.28;100.00;99149.50;2616722;28;20052;-89
2023/05/18 04:19:14;;;;;;;9.40;2.80;;;;;;;6.24;100.00;99157.31;2612949;28;20048;-91
2023/05/18 04:20:30;;;;;;;8.90;3.20;;;;;;;6.18;100.00;99156.41;2613582;28;20470;-89
2023/05/18 04:21:46;;;;;;;6.45;2.83;;;;;;;6.17;100.00;99157.28;2602161;28;20060;-89
2023/05/18 04:23:02;;;;;;;7.88;3.13;;;;;;;6.29;100.00;99153.84;2608141;28;20045;-89
2023/05/18 04:24:18;;;;;;;3.97;2.72;;;;;;;6.22;100.00;99158.19;2614807;28;20079;-89
2023/05/18 04:25:34;;;;;;;7.15;3.03;;;;;;;6.24;100.00;99160.75;2613688;28;20053;-89
2023/05/18 04:26:49;;;;;;;7.05;3.30;;;;;;;6.01;100.00;99155.50;2613339;28;20111;-89
2023/05/18 04:28:05;;;;;;;8.80;3.45;;;;;;;6.14;100.00;99153.81;2613308;28;20057;-88
2023/05/18 04:29:21;;;;;;;6.90;3.22;;;;;;;6.31;100.00;99152.13;2614378;28;20045;-88
2023/05/18 04:30:36;;;;;;;5.72;2.80;;;;;;;5.94;100.00;99160.69;2613541;28;20045;-88
2023/05/18 04:31:59;;;;;;;5.63;3.25;;;;;;;6.14;100.00;99156.41;2614002;28;20460;-87
2023/05/18 04:33:15;;;;;;;7.95;3.10;;;;;;;6.24;100.00;99160.75;2615759;28;20507;-88
2023/05/18 04:34:30;;;;;;;4.60;2.80;;;;;;;6.16;100.00;99154.69;2614843;28;20049;-88
2023/05/18 04:35:47;;;;;;;9.73;3.25;;;;;;;6.37;100.00;99153.84;2612634;28;20057;-88
2023/05/18 04:37:06;;;;;;;6.57;3.10;;;;;;;6.36;100.00;99150.38;2615087;28;20044;-89
2023/05/18 04:38:22;;;;;;;7.85;2.97;;;;;;;6.40;100.00;99155.56;2614555;28;20102;-88
2023/05/18 04:39:38;;;;;;;7.85;3.35;;;;;;;6.40;100.00;99151.25;2613942;28;20098;-88
2023/05/18 04:40:59;;;;;;;6.47;2.90;;;;;;;6.49;100.00;99164.25;2615298;28;20532;-90
2023/05/18 04:42:17;;;;;;;7.15;3.30;;;;;;;6.35;100.00;99169.44;2615391;28;20053;-88
2023/05/18 04:43:35;;;;;;;6.65;3.25;;;;;;;6.45;100.00;99161.66;2612549;28;20114;-88
2023/05/18 04:44:51;;;;;;;9.32;3.47;;;;;;;6.59;100.00;99170.34;2614032;28;20075;-88
2023/05/18 04:46:06;;;;;;;7.55;3.58;;;;;;;6.41;100.00;99163.38;2614881;28;20415;-88
2023/05/18 04:47:22;;;;;;;9.30;3.40;;;;;;;6.59;100.00;99166.84;2614822;28;20052;-88
2023/05/18 04:48:38;;;;;;;8.40;3.25;;;;;;;6.57;100.00;99172.06;2602394;28;20093;-89
2023/05/18 04:49:54;;;;;;;9.73;4.20;;;;;;;6.55;100.00;99173.78;2600311;28;20181;-89
2023/05/18 04:51:10;;;;;;;7.63;3.20;;;;;;;6.64;100.00;99166.00;2607880;28;20223;-89
2023/05/18 04:52:29;;;;;;;5.63;3.13;;;;;;;6.65;100.00;99169.47;2615037;28;20048;-90
2023/05/18 04:53:45;;;;;;;7.35;3.15;;;;;;;6.84;100.00;99166.84;2613819;28;20080;-88
2023/05/18 04:55:01;;;;;;;7.38;3.03;;;;;;;6.77;100.00;99172.06;2615336;28;20102;-89
2023/05/18 04:56:16;;;;;;;5.68;3.13;;;;;;;6.92;100.00;99168.56;2613280;28;20665;-89
2023/05/18 04:57:32;;;;;;;11.63;3.42;;;;;;;6.90;100.00;99162.50;2613887;28;20102;-89
2023/05/18 04:58:48;;;;;;;6.93;4.25;;;;;;;6.99;100.00;99166.81;2614067;28;20104;-89
2023/05/18 05:00:04;;;;;;;8.40;3.65;;;;;;;6.96;100.00;99172.03;2616383;28;20048;-89
2023/05/18 05:01:20;;;;;;;5.18;3.45;;;;;;;6.99;100.00;99171.19;2613216;28;20052;-89
2023/05/18 05:02:36;;;;;;;10.05;3.60;;;;;;;7.03;100.00;99175.50;2609664;28;20076;-89
2023/05/18 05:03:51;;;;;;;9.15;3.15;;;;;;;6.92;100.00;99170.31;2613395;28;20119;-89
2023/05/18 05:05:07;;;;;;;8.50;2.53;;;;;;;6.69;100.00;99172.91;2614701;28;20049;-90
2023/05/18 05:06:23;;;;;;;5.47;2.72;;;;;;;6.73;100.00;99169.47;2613904;28;20083;-89
2023/05/18 05:07:38;;;;;;;6.35;3.20;;;;;;;6.59;100.00;99167.72;2603607;28;20053;-90
2023/05/18 05:08:54;;;;;;;7.97;3.17;;;;;;;6.76;100.00;99170.31;2607752;28;20041;-89
2023/05/18 05:10:10;;;;;;;7.97;3.38;;;;;;;6.92;100.00;99176.38;2614609;28;20636;-89
2023/05/18 05:11:25;;;;;;;6.72;3.00;;;;;;;7.18;100.00;99171.97;2612806;28;20499;-89
2023/05/18 05:12:41;;;;;;;8.25;3.25;;;;;;;7.34;100.00;99171.09;2615038;28;20175;-90
2023/05/18 05:13:57;;;;;;;9.55;3.55;;;;;;;7.27;100.00;99165.91;2612773;28;20041;-88
2023/05/18 05:15:12;;;;;;;8.23;3.28;;;;;;;7.20;100.00;99170.25;2614963;28;20052;-91
2023/05/18 05:16:28;;;;;;;8.48;3.53;;;;;;;7.36;100.00;99178.88;2613119;28;20048;-90
2023/05/18 05:17:46;;;;;;;7.13;3.00;;;;;;;7.47;100.00;99171.91;2612863;28;20416;-92
2023/05/18 05:19:01;;;;;;;7.40;2.83;;;;;;;7.70;100.00;99170.97;2614759;28;20072;-91
2023/05/18 05:20:17;;;;;;;8.70;3.30;;;;;;;7.60;100.00;99177.06;2613205;28;20055;-92
2023/05/18 05:21:33;;;;;;;10.82;3.60;;;;;;;7.57;100.00;99174.50;2614995;28;20052;-92
2023/05/18 05:22:48;;;;;;;5.05;2.80;;;;;;;7.59;100.00;99175.34;2613341;28;20695;-92
2023/05/18 05:24:04;;;;;;;5.45;3.00;;;;;;;7.42;100.00;99175.41;2612972;28;20103;-91
2023/05/18 05:25:20;;;;;;;9.98;3.20;;;;;;;7.62;100.00;99180.53;2615496;28;20570;-91
2023/05/18 05:26:36;;;;;;;6.25;3.15;;;;;;;7.81;100.00;99172.63;2614044;28;20130;-91
2023/05/18 05:27:51;;;;;;;10.15;3.15;;;;;;;7.86;100.00;99187.38;2613512;28;20075;-90
2023/05/18 05:29:07;;;;;;;9.38;3.15;;;;;;;7.97;100.00;99179.50;2613464;28;20084;-90
2023/05/18 05:30:22;;;;;;;6.20;3.28;;;;;;;7.88;100.00;99179.56;2611967;28;20503;-89
2023/05/18 05:31:38;;;;;;;7.88;2.90;;;;;;;7.95;100.00;99172.56;2614408;28;20415;-89
2023/05/18 05:32:54;;;;;;;9.00;2.95;;;;;;;7.85;100.00;99172.59;2613296;28;20568;-91
2023/05/18 05:34:10;;;;;;;6.30;3.17;;;;;;;7.86;100.00;99173.50;2602973;28;20045;-90
2023/05/18 05:35:26;;;;;;;6.15;2.80;;;;;;;8.22;100.00;99175.88;2605569;28;20048;-91
2023/05/18 05:36:42;;;;;;;8.07;2.70;;;;;;;8.28;100.00;99175.84;2609102;28;20048;-91
2023/05/18 05:37:57;;;;;;;6.78;3.47;;;;;;;8.37;100.00;99172.28;2611515;28;20052;-91
2023/05/18 05:39:13;;;;;;;7.55;2.95;;;;;;;8.59;100.00;99173.91;2614625;28;20049;-91
2023/05/18 05:40:29;;;;;;;7.88;2.97;;;;;;;8.40;100.00;99172.28;2615090;28;20072;-91
2023/05/18 05:41:44;;;;;;;6.60;2.75;;;;;;;8.47;100.00;99173.97;2612603;28;20059;-91
2023/05/18 05:42:59;;;;;;;9.85;3.00;;;;;;;8.57;100.00;99167.84;2612572;28;20620;-91
2023/05/18 05:44:15;;;;;;;7.90;3.03;;;;;;;8.78;100.00;99173.72;2608987;28;20504;-90
2023/05/18 05:45:31;;;;;;;4.60;2.33;;;;;;;8.48;100.00;99173.09;2613540;28;20049;-91
2023/05/18 05:46:46;;;;;;;4.95;2.92;;;;;;;8.77;100.00;99172.00;2612510;28;20102;-90
2023/05/18 05:48:02;;;;;;;8.90;3.40;;;;;;;8.85;100.00;99171.94;2613013;28;20067;-91
2023/05/18 05:49:17;;;;;;;8.57;2.70;;;;;;;8.97;100.00;99174.44;2611063;28;20546;-94
2023/05/18 05:50:33;;;;;;;6.70;2.47;;;;;;;8.94;100.00;99168.38;2614335;28;20075;-90
2023/05/18 05:51:49;;;;;;;5.13;2.50;;;;;;;8.86;100.00;99169.31;2614029;28;20135;-91
2023/05/18 05:53:05;;;;;;;10.02;3.35;;;;;;;8.95;100.00;99164.91;2614696;28;20045;-92
2023/05/18 05:54:20;;;;;;;6.25;2.90;;;;;;;8.91;100.00;99169.28;2603924;28;20048;-91
2023/05/18 05:55:40;;;;;;;5.88;2.50;;;;;;;9.05;100.00;99166.53;2604498;28;20075;-90
2023/05/18 05:56:55;;;;;;;6.82;2.50;;;;;;;8.88;100.00;99169.31;2607909;28;20050;-90
2023/05/18 05:58:11;;;;;;;7.07;1.67;;;;;;;8.62;100.00;99173.88;2614115;28;20056;-91
2023/05/18 05:59:27;;;;;;;10.30;2.20;;;;;;;8.85;100.00;99169.31;2602582;28;20045;-90
2023/05/18 06:00:42;;;;;;;4.75;2.47;;;;;;;8.92;100.00;99180.56;2595700;28;20053;-90
2023/05/18 06:01:58;;;;;;;11.35;3.85;;;;;;;8.95;100.00;99170.13;2608086;28;20090;-90